createdAt,value
2023-06-30T00:11:48.846Z,28.1
2023-06-30T00:26:58.952Z,25.9
2023-06-30T00:42:08.392Z,28.3
2023-06-30T00:57:18.224Z,28
2023-06-30T01:12:27.698Z,28.6
2023-06-30T01:27:38.548Z,29.8
2023-06-30T01:42:49.874Z,25.5
2023-06-30T01:57:59.789Z,22.3
2023-06-30T02:13:10.446Z,22.4
2023-06-30T02:28:20.737Z,19.1
2023-06-30T02:43:30.561Z,16.2
2023-06-30T02:58:40.109Z,12.8
2023-06-30T03:13:50.118Z,11.3
2023-06-30T03:28:58.771Z,7.9
2023-06-30T03:44:08.476Z,8.2
2023-06-30T03:59:17.797Z,8.4
2023-06-30T04:14:27.111Z,8.6
2023-06-30T04:29:37.442Z,3.4
2023-06-30T04:44:47.012Z,4
2023-06-30T04:59:57.035Z,3.8
2023-06-30T05:15:06.822Z,5.3
2023-06-30T05:30:16.651Z,5.1
2023-06-30T05:45:26.174Z,6.5
2023-06-30T06:00:38.797Z,7.6
2023-06-30T06:15:48.163Z,9.1
2023-06-30T06:30:57.851Z,9.4
2023-06-30T06:46:07.656Z,11
2023-06-30T07:01:17.897Z,13.7
2023-06-30T07:16:27.872Z,15.2
2023-06-30T07:31:39.224Z,15.7
2023-06-30T07:47:01.541Z,14.4
2023-06-30T08:02:15.897Z,12.2
2023-06-30T08:17:55.337Z,12.2
2023-06-30T08:33:09.853Z,12.3
2023-06-30T08:48:20.181Z,11.7
2023-06-30T09:03:29.276Z,12.1
2023-06-30T09:18:40.069Z,14.5
2023-06-30T09:33:50.008Z,10
2023-06-30T09:49:00.048Z,10.2
2023-06-30T10:04:09.673Z,8.7
2023-06-30T10:19:20.128Z,8
2023-06-30T10:34:29.425Z,8.3
2023-06-30T10:49:38.949Z,7.1
2023-06-30T11:04:48.987Z,5.9
2023-06-30T11:19:59.454Z,5.3
2023-06-30T11:35:09.437Z,3.8
2023-06-30T11:50:21.616Z,4.3
2023-06-30T12:05:31.680Z,3.8
2023-06-30T12:20:41.804Z,2.2
2023-06-30T12:35:51.318Z,2.4
2023-06-30T12:51:02.383Z,2.3
2023-06-30T13:06:13.075Z,2.2
2023-06-30T13:21:23.567Z,2
2023-06-30T13:36:34.171Z,1.8
2023-06-30T13:51:44.355Z,1.8
2023-06-30T14:07:10.898Z,1.7
2023-06-30T14:22:31.980Z,1.6
2023-06-30T14:40:42.596Z,1.9
2023-06-30T14:55:55.400Z,1.8
2023-06-30T15:11:04.512Z,2.2
2023-06-30T15:26:13.760Z,1.7
2023-06-30T15:41:23.815Z,1.7
2023-06-30T15:56:33.327Z,1.7
2023-06-30T16:11:43.056Z,1.8
2023-06-30T16:26:52.282Z,1.7
2023-06-30T16:42:01.408Z,2
2023-06-30T16:57:10.103Z,2
2023-06-30T17:12:19.863Z,2
2023-06-30T17:27:29.461Z,1.9
2023-06-30T17:42:38.804Z,1.9
2023-06-30T17:57:48.927Z,1.9
2023-06-30T18:12:58.755Z,2.4
2023-06-30T18:28:08.212Z,2.9
2023-06-30T18:43:17.929Z,2.4
2023-06-30T18:58:27.513Z,2.2
2023-06-30T19:13:36.700Z,2.2
2023-06-30T19:28:46.381Z,2.3
2023-06-30T19:43:55.801Z,2.1
2023-06-30T19:59:05.696Z,2.4
2023-06-30T20:14:15.332Z,2.5
2023-06-30T20:29:24.746Z,2.2
2023-06-30T20:44:35.712Z,2.9
2023-06-30T20:59:47.386Z,3
2023-06-30T21:14:56.916Z,2.7
2023-06-30T21:30:06.889Z,2.9
2023-06-30T21:45:16.673Z,2.6
2023-06-30T22:00:26.190Z,3.3
2023-06-30T22:15:35.692Z,3.6
2023-06-30T22:30:45.772Z,4.1
2023-06-30T22:45:56.417Z,3
2023-06-30T23:01:06.607Z,3.2
2023-06-30T23:16:16.486Z,3.2
2023-06-30T23:31:26.157Z,3.1
2023-06-30T23:46:36.374Z,3.2
